sensor_id;sensor_type;location;lat;lon;timestamp;temperature;humidity
5280;DHT22;2663;53.588;10.010;2023-02-19T00:01:08;6.40;99.90
5280;DHT22;2663;53.588;10.010;2023-02-19T00:03:37;6.50;99.90
5280;DHT22;2663;53.588;10.010;2023-02-19T00:06:05;6.50;99.90
5280;DHT22;2663;53.588;10.010;2023-02-19T00:08:33;6.50;99.90
5280;DHT22;2663;53.588;10.010;2023-02-19T00:11:09;6.50;99.90
5280;DHT22;2663;53.588;10.010;2023-02-19T00:13:38;6.50;99.90
5280;DHT22;2663;53.588;10.010;2023-02-19T00:16:11;6.60;99.90
5280;DHT22;2663;53.588;10.010;2023-02-19T00:18:39;6.60;99.90
5280;DHT22;2663;53.588;10.010;2023-02-19T00:21:06;6.60;99.90
5280;DHT22;2663;53.588;10.010;2023-02-19T00:23:33;6.60;99.90
5280;DHT22;2663;53.588;10.010;2023-02-19T00:26:05;6.50;99.90
5280;DHT22;2663;53.588;10.010;2023-02-19T00:28:44;6.40;99.90
5280;DHT22;2663;53.588;10.010;2023-02-19T00:31:26;6.40;99.90
5280;DHT22;2663;53.588;10.010;2023-02-19T00:33:55;6.40;99.90
5280;DHT22;2663;53.588;10.010;2023-02-19T00:36:23;6.50;99.90
5280;DHT22;2663;53.588;10.010;2023-02-19T00:38:50;6.40;99.90
5280;DHT22;2663;53.588;10.010;2023-02-19T00:41:19;6.40;99.90
5280;DHT22;2663;53.588;10.010;2023-02-19T00:43:56;6.40;99.90
5280;DHT22;2663;53.588;10.010;2023-02-19T00:46:27;6.50;99.90
5280;DHT22;2663;53.588;10.010;2023-02-19T00:48:55;6.50;99.90
5280;DHT22;2663;53.588;10.010;2023-02-19T00:51:24;6.40;99.90
5280;DHT22;2663;53.588;10.010;2023-02-19T00:53:51;6.50;99.90
5280;DHT22;2663;53.588;10.010;2023-02-19T00:56:19;6.40;99.90
5280;DHT22;2663;53.588;10.010;2023-02-19T00:58:46;6.40;99.90
5280;DHT22;2663;53.588;10.010;2023-02-19T01:01:13;6.50;99.90
5280;DHT22;2663;53.588;10.010;2023-02-19T01:03:40;6.50;99.90
5280;DHT22;2663;53.588;10.010;2023-02-19T01:06:08;6.50;99.90
5280;DHT22;2663;53.588;10.010;2023-02-19T01:08:36;6.50;99.90
5280;DHT22;2663;53.588;10.010;2023-02-19T01:11:03;6.50;99.90
5280;DHT22;2663;53.588;10.010;2023-02-19T01:13:31;6.40;99.90
5280;DHT22;2663;53.588;10.010;2023-02-19T01:16:03;6.30;99.90
5280;DHT22;2663;53.588;10.010;2023-02-19T01:18:30;6.40;99.90
5280;DHT22;2663;53.588;10.010;2023-02-19T01:20:57;7.70;99.90
5280;DHT22;2663;53.588;10.010;2023-02-19T01:23:24;6.30;99.90
5280;DHT22;2663;53.588;10.010;2023-02-19T01:25:51;6.30;99.90
5280;DHT22;2663;53.588;10.010;2023-02-19T01:28:18;6.20;99.90
5280;DHT22;2663;53.588;10.010;2023-02-19T01:30:44;6.10;99.90
5280;DHT22;2663;53.588;10.010;2023-02-19T01:33:11;6.10;99.90
5280;DHT22;2663;53.588;10.010;2023-02-19T01:35:38;6.10;99.90
5280;DHT22;2663;53.588;10.010;2023-02-19T01:38:05;6.10;99.90
5280;DHT22;2663;53.588;10.010;2023-02-19T01:40:34;6.10;99.90
5280;DHT22;2663;53.588;10.010;2023-02-19T01:43:00;6.20;99.90
5280;DHT22;2663;53.588;10.010;2023-02-19T01:45:31;6.20;99.90
5280;DHT22;2663;53.588;10.010;2023-02-19T01:48:17;6.20;99.90
5280;DHT22;2663;53.588;10.010;2023-02-19T01:50:51;6.30;99.90
5280;DHT22;2663;53.588;10.010;2023-02-19T01:53:23;6.20;99.90
5280;DHT22;2663;53.588;10.010;2023-02-19T01:55:55;6.20;99.90
5280;DHT22;2663;53.588;10.010;2023-02-19T01:58:25;6.20;99.90
5280;DHT22;2663;53.588;10.010;2023-02-19T02:00:53;6.30;99.90
5280;DHT22;2663;53.588;10.010;2023-02-19T02:03:20;6.20;99.90
5280;DHT22;2663;53.588;10.010;2023-02-19T02:05:58;6.20;99.90
5280;DHT22;2663;53.588;10.010;2023-02-19T02:08:27;6.10;99.90
5280;DHT22;2663;53.588;10.010;2023-02-19T02:11:13;6.10;99.90
5280;DHT22;2663;53.588;10.010;2023-02-19T02:13:40;5.90;99.90
5280;DHT22;2663;53.588;10.010;2023-02-19T02:21:29;6.10;99.90
5280;DHT22;2663;53.588;10.010;2023-02-19T02:27:03;5.80;99.90
5280;DHT22;2663;53.588;10.010;2023-02-19T02:32:30;5.90;99.90
5280;DHT22;2663;53.588;10.010;2023-02-19T02:35:06;6.10;99.90
5280;DHT22;2663;53.588;10.010;2023-02-19T02:37:36;6.00;99.90
5280;DHT22;2663;53.588;10.010;2023-02-19T02:40:05;6.00;99.90
5280;DHT22;2663;53.588;10.010;2023-02-19T02:42:33;6.10;99.90
5280;DHT22;2663;53.588;10.010;2023-02-19T02:45:22;6.10;99.90
5280;DHT22;2663;53.588;10.010;2023-02-19T02:50:46;5.90;99.90
5280;DHT22;2663;53.588;10.010;2023-02-19T02:53:18;5.90;99.90
5280;DHT22;2663;53.588;10.010;2023-02-19T02:56:05;6.00;99.90
5280;DHT22;2663;53.588;10.010;2023-02-19T02:58:33;6.00;99.90
5280;DHT22;2663;53.588;10.010;2023-02-19T03:01:08;6.00;99.90
5280;DHT22;2663;53.588;10.010;2023-02-19T03:04:01;5.90;99.90
5280;DHT22;2663;53.588;10.010;2023-02-19T03:06:30;6.00;99.90
5280;DHT22;2663;53.588;10.010;2023-02-19T03:09:22;6.00;99.90
5280;DHT22;2663;53.588;10.010;2023-02-19T03:11:59;5.80;99.90
5280;DHT22;2663;53.588;10.010;2023-02-19T03:14:49;5.60;99.90
5280;DHT22;2663;53.588;10.010;2023-02-19T03:17:40;5.80;99.90
5280;DHT22;2663;53.588;10.010;2023-02-19T03:20:29;5.80;99.90
5280;DHT22;2663;53.588;10.010;2023-02-19T03:23:00;5.80;99.90
5280;DHT22;2663;53.588;10.010;2023-02-19T03:25:30;5.80;99.90
5280;DHT22;2663;53.588;10.010;2023-02-19T03:28:17;5.80;99.90
5280;DHT22;2663;53.588;10.010;2023-02-19T03:30:49;5.80;99.90
5280;DHT22;2663;53.588;10.010;2023-02-19T03:33:21;5.80;99.90
5280;DHT22;2663;53.588;10.010;2023-02-19T03:35:55;5.90;99.90
5280;DHT22;2663;53.588;10.010;2023-02-19T03:38:27;5.70;99.90
5280;DHT22;2663;53.588;10.010;2023-02-19T03:41:06;5.70;99.90
5280;DHT22;2663;53.588;10.010;2023-02-19T03:43:59;5.70;99.90
5280;DHT22;2663;53.588;10.010;2023-02-19T03:46:44;5.70;99.90
5280;DHT22;2663;53.588;10.010;2023-02-19T03:49:34;5.70;99.90
5280;DHT22;2663;53.588;10.010;2023-02-19T03:52:29;5.70;99.90
5280;DHT22;2663;53.588;10.010;2023-02-19T03:55:02;4.40;99.90
5280;DHT22;2663;53.588;10.010;2023-02-19T03:57:52;5.80;99.90
5280;DHT22;2663;53.588;10.010;2023-02-19T04:00:29;5.80;99.90
5280;DHT22;2663;53.588;10.010;2023-02-19T04:03:05;5.80;99.90
5280;DHT22;2663;53.588;10.010;2023-02-19T04:05:38;5.80;99.90
5280;DHT22;2663;53.588;10.010;2023-02-19T04:08:16;5.70;99.90
5280;DHT22;2663;53.588;10.010;2023-02-19T04:10:48;5.60;99.90
5280;DHT22;2663;53.588;10.010;2023-02-19T04:13:25;5.60;99.90
5280;DHT22;2663;53.588;10.010;2023-02-19T04:15:54;5.50;99.90
5280;DHT22;2663;53.588;10.010;2023-02-19T04:18:27;5.60;99.90
5280;DHT22;2663;53.588;10.010;2023-02-19T04:20:55;5.50;99.90
5280;DHT22;2663;53.588;10.010;2023-02-19T04:23:25;5.60;99.90
5280;DHT22;2663;53.588;10.010;2023-02-19T04:25:56;5.50;99.90
5280;DHT22;2663;53.588;10.010;2023-02-19T04:28:25;5.70;99.90
5280;DHT22;2663;53.588;10.010;2023-02-19T04:30:51;5.60;99.90
5280;DHT22;2663;53.588;10.010;2023-02-19T04:33:18;5.60;99.90
5280;DHT22;2663;53.588;10.010;2023-02-19T04:35:45;5.60;99.90
5280;DHT22;2663;53.588;10.010;2023-02-19T04:38:12;5.60;99.90
5280;DHT22;2663;53.588;10.010;2023-02-19T04:40:39;5.60;99.90
5280;DHT22;2663;53.588;10.010;2023-02-19T04:43:06;5.70;99.90
5280;DHT22;2663;53.588;10.010;2023-02-19T04:45:33;5.60;99.90
5280;DHT22;2663;53.588;10.010;2023-02-19T04:47:59;5.60;99.90
5280;DHT22;2663;53.588;10.010;2023-02-19T04:50:26;4.10;99.90
5280;DHT22;2663;53.588;10.010;2023-02-19T04:52:53;5.60;99.90
5280;DHT22;2663;53.588;10.010;2023-02-19T04:55:19;5.40;99.90
5280;DHT22;2663;53.588;10.010;2023-02-19T04:57:46;5.50;99.90
5280;DHT22;2663;53.588;10.010;2023-02-19T05:00:13;5.40;99.90
5280;DHT22;2663;53.588;10.010;2023-02-19T05:02:40;5.30;99.90
5280;DHT22;2663;53.588;10.010;2023-02-19T05:05:07;5.30;99.90
5280;DHT22;2663;53.588;10.010;2023-02-19T05:07:34;5.40;99.90
5280;DHT22;2663;53.588;10.010;2023-02-19T05:10:01;5.40;99.90
5280;DHT22;2663;53.588;10.010;2023-02-19T05:12:29;5.50;99.90
5280;DHT22;2663;53.588;10.010;2023-02-19T05:14:56;5.40;99.90
5280;DHT22;2663;53.588;10.010;2023-02-19T05:17:23;5.30;99.90
5280;DHT22;2663;53.588;10.010;2023-02-19T05:19:49;5.20;99.90
5280;DHT22;2663;53.588;10.010;2023-02-19T05:22:16;6.60;99.90
5280;DHT22;2663;53.588;10.010;2023-02-19T05:24:44;5.10;99.90
5280;DHT22;2663;53.588;10.010;2023-02-19T05:27:10;5.10;99.90
5280;DHT22;2663;53.588;10.010;2023-02-19T05:29:37;5.10;99.90
5280;DHT22;2663;53.588;10.010;2023-02-19T05:32:04;5.10;99.90
5280;DHT22;2663;53.588;10.010;2023-02-19T05:34:30;5.10;99.90
5280;DHT22;2663;53.588;10.010;2023-02-19T05:36:57;5.00;99.90
5280;DHT22;2663;53.588;10.010;2023-02-19T05:39:24;5.00;99.90
5280;DHT22;2663;53.588;10.010;2023-02-19T05:41:50;5.10;99.90
5280;DHT22;2663;53.588;10.010;2023-02-19T05:44:17;5.20;99.90
5280;DHT22;2663;53.588;10.010;2023-02-19T05:46:44;5.20;99.90
5280;DHT22;2663;53.588;10.010;2023-02-19T05:49:11;5.10;99.90
5280;DHT22;2663;53.588;10.010;2023-02-19T05:51:38;5.20;99.90
5280;DHT22;2663;53.588;10.010;2023-02-19T05:54:04;5.10;99.90
5280;DHT22;2663;53.588;10.010;2023-02-19T05:56:40;5.10;99.90
5280;DHT22;2663;53.588;10.010;2023-02-19T05:59:18;5.10;99.90
5280;DHT22;2663;53.588;10.010;2023-02-19T06:01:54;5.00;99.90
5280;DHT22;2663;53.588;10.010;2023-02-19T06:04:21;5.00;99.90
5280;DHT22;2663;53.588;10.010;2023-02-19T06:06:48;5.10;99.90
5280;DHT22;2663;53.588;10.010;2023-02-19T06:09:15;5.10;99.90
5280;DHT22;2663;53.588;10.010;2023-02-19T06:11:42;4.90;99.90
5280;DHT22;2663;53.588;10.010;2023-02-19T06:14:11;5.00;99.90
5280;DHT22;2663;53.588;10.010;2023-02-19T06:16:39;4.90;99.90
5280;DHT22;2663;53.588;10.010;2023-02-19T06:19:06;5.00;99.90
5280;DHT22;2663;53.588;10.010;2023-02-19T06:21:32;5.00;99.90
5280;DHT22;2663;53.588;10.010;2023-02-19T06:24:06;4.90;99.90
5280;DHT22;2663;53.588;10.010;2023-02-19T06:26:34;4.90;99.90
5280;DHT22;2663;53.588;10.010;2023-02-19T06:29:00;4.90;99.90
5280;DHT22;2663;53.588;10.010;2023-02-19T06:31:27;4.80;99.90
5280;DHT22;2663;53.588;10.010;2023-02-19T06:33:54;4.80;99.90
5280;DHT22;2663;53.588;10.010;2023-02-19T06:36:22;4.80;99.90
5280;DHT22;2663;53.588;10.010;2023-02-19T06:38:49;4.80;99.90
5280;DHT22;2663;53.588;10.010;2023-02-19T06:41:15;5.00;99.90
5280;DHT22;2663;53.588;10.010;2023-02-19T06:43:42;4.80;99.90
5280;DHT22;2663;53.588;10.010;2023-02-19T06:46:10;4.80;99.90
5280;DHT22;2663;53.588;10.010;2023-02-19T06:48:38;4.70;99.90
5280;DHT22;2663;53.588;10.010;2023-02-19T06:51:06;4.70;99.90
5280;DHT22;2663;53.588;10.010;2023-02-19T06:53:32;4.60;99.90
5280;DHT22;2663;53.588;10.010;2023-02-19T06:56:05;4.70;99.90
5280;DHT22;2663;53.588;10.010;2023-02-19T06:58:33;4.70;99.90
5280;DHT22;2663;53.588;10.010;2023-02-19T07:01:00;4.60;99.90
5280;DHT22;2663;53.588;10.010;2023-02-19T07:03:27;4.50;99.90
5280;DHT22;2663;53.588;10.010;2023-02-19T07:05:54;4.50;99.90
5280;DHT22;2663;53.588;10.010;2023-02-19T07:08:20;4.50;99.90
5280;DHT22;2663;53.588;10.010;2023-02-19T07:10:55;6.60;99.90
5280;DHT22;2663;53.588;10.010;2023-02-19T07:13:23;4.60;99.90
5280;DHT22;2663;53.588;10.010;2023-02-19T07:15:58;4.50;99.90
5280;DHT22;2663;53.588;10.010;2023-02-19T07:18:25;4.50;99.90
5280;DHT22;2663;53.588;10.010;2023-02-19T07:20:52;4.50;99.90
5280;DHT22;2663;53.588;10.010;2023-02-19T07:23:19;4.50;99.90
5280;DHT22;2663;53.588;10.010;2023-02-19T07:25:46;5.00;99.90
5280;DHT22;2663;53.588;10.010;2023-02-19T07:28:13;4.90;99.90
5280;DHT22;2663;53.588;10.010;2023-02-19T07:30:40;4.80;99.90
5280;DHT22;2663;53.588;10.010;2023-02-19T07:33:06;4.80;99.90
5280;DHT22;2663;53.588;10.010;2023-02-19T07:35:36;4.70;99.90
5280;DHT22;2663;53.588;10.010;2023-02-19T07:38:03;4.70;99.90
5280;DHT22;2663;53.588;10.010;2023-02-19T07:40:29;4.70;99.90
5280;DHT22;2663;53.588;10.010;2023-02-19T07:42:58;4.80;99.90
5280;DHT22;2663;53.588;10.010;2023-02-19T07:45:25;4.80;99.90
5280;DHT22;2663;53.588;10.010;2023-02-19T07:47:52;4.80;99.90
5280;DHT22;2663;53.588;10.010;2023-02-19T07:50:18;3.20;99.90
5280;DHT22;2663;53.588;10.010;2023-02-19T07:52:45;4.80;99.90
5280;DHT22;2663;53.588;10.010;2023-02-19T07:55:12;4.80;99.90
5280;DHT22;2663;53.588;10.010;2023-02-19T07:57:39;4.80;99.90
5280;DHT22;2663;53.588;10.010;2023-02-19T08:00:05;4.80;99.90
5280;DHT22;2663;53.588;10.010;2023-02-19T08:02:32;4.80;99.90
5280;DHT22;2663;53.588;10.010;2023-02-19T08:05:17;4.80;99.90
5280;DHT22;2663;53.588;10.010;2023-02-19T08:07:44;4.90;99.90
5280;DHT22;2663;53.588;10.010;2023-02-19T08:10:11;4.70;99.90
5280;DHT22;2663;53.588;10.010;2023-02-19T08:13:00;4.80;99.90
5280;DHT22;2663;53.588;10.010;2023-02-19T08:15:51;4.80;99.90
5280;DHT22;2663;53.588;10.010;2023-02-19T08:18:24;4.90;99.90
5280;DHT22;2663;53.588;10.010;2023-02-19T08:20:53;4.90;99.90
5280;DHT22;2663;53.588;10.010;2023-02-19T08:23:20;5.00;99.90
5280;DHT22;2663;53.588;10.010;2023-02-19T08:25:48;5.10;99.90
5280;DHT22;2663;53.588;10.010;2023-02-19T08:28:16;5.10;99.90
5280;DHT22;2663;53.588;10.010;2023-02-19T08:30:45;5.10;99.90
5280;DHT22;2663;53.588;10.010;2023-02-19T08:33:14;5.20;99.90
5280;DHT22;2663;53.588;10.010;2023-02-19T08:35:42;5.30;99.90
5280;DHT22;2663;53.588;10.010;2023-02-19T08:38:10;5.20;99.90
5280;DHT22;2663;53.588;10.010;2023-02-19T08:40:38;5.20;99.90
5280;DHT22;2663;53.588;10.010;2023-02-19T08:43:11;5.30;99.90
5280;DHT22;2663;53.588;10.010;2023-02-19T08:45:43;5.40;99.90
5280;DHT22;2663;53.588;10.010;2023-02-19T08:48:13;5.50;99.90
5280;DHT22;2663;53.588;10.010;2023-02-19T08:50:40;5.50;99.90
5280;DHT22;2663;53.588;10.010;2023-02-19T08:53:07;5.60;99.90
5280;DHT22;2663;53.588;10.010;2023-02-19T08:55:36;5.60;99.90
5280;DHT22;2663;53.588;10.010;2023-02-19T08:58:03;5.60;99.90
5280;DHT22;2663;53.588;10.010;2023-02-19T09:00:30;5.70;99.90
5280;DHT22;2663;53.588;10.010;2023-02-19T09:02:57;5.80;99.90
5280;DHT22;2663;53.588;10.010;2023-02-19T09:05:23;5.90;99.90
5280;DHT22;2663;53.588;10.010;2023-02-19T09:07:50;5.80;99.90
5280;DHT22;2663;53.588;10.010;2023-02-19T09:10:17;6.00;99.90
5280;DHT22;2663;53.588;10.010;2023-02-19T09:12:44;5.90;99.90
5280;DHT22;2663;53.588;10.010;2023-02-19T09:15:10;5.80;99.90
5280;DHT22;2663;53.588;10.010;2023-02-19T09:17:37;5.80;99.90
5280;DHT22;2663;53.588;10.010;2023-02-19T09:20:04;5.80;99.90
5280;DHT22;2663;53.588;10.010;2023-02-19T09:22:30;5.80;99.90
5280;DHT22;2663;53.588;10.010;2023-02-19T09:24:57;5.90;99.90
5280;DHT22;2663;53.588;10.010;2023-02-19T09:27:24;6.00;99.90
5280;DHT22;2663;53.588;10.010;2023-02-19T09:29:51;6.20;99.90
5280;DHT22;2663;53.588;10.010;2023-02-19T09:32:17;6.30;99.90
5280;DHT22;2663;53.588;10.010;2023-02-19T09:34:45;6.50;99.90
5280;DHT22;2663;53.588;10.010;2023-02-19T09:37:11;6.40;99.90
5280;DHT22;2663;53.588;10.010;2023-02-19T09:39:38;6.30;99.90
5280;DHT22;2663;53.588;10.010;2023-02-19T09:42:26;6.40;99.90
5280;DHT22;2663;53.588;10.010;2023-02-19T09:44:57;6.30;99.90
5280;DHT22;2663;53.588;10.010;2023-02-19T09:47:27;6.30;99.90
5280;DHT22;2663;53.588;10.010;2023-02-19T09:49:58;6.40;99.90
5280;DHT22;2663;53.588;10.010;2023-02-19T09:52:39;6.50;99.90
5280;DHT22;2663;53.588;10.010;2023-02-19T09:55:17;6.70;99.90
5280;DHT22;2663;53.588;10.010;2023-02-19T09:57:47;6.70;99.90
5280;DHT22;2663;53.588;10.010;2023-02-19T10:00:24;6.80;99.90
5280;DHT22;2663;53.588;10.010;2023-02-19T10:03:04;6.80;99.90
5280;DHT22;2663;53.588;10.010;2023-02-19T10:05:32;6.80;99.90
5280;DHT22;2663;53.588;10.010;2023-02-19T10:07:59;6.80;99.90
5280;DHT22;2663;53.588;10.010;2023-02-19T10:10:32;6.80;99.90
5280;DHT22;2663;53.588;10.010;2023-02-19T10:18:19;6.90;99.90
5280;DHT22;2663;53.588;10.010;2023-02-19T10:20:47;7.20;99.90
5280;DHT22;2663;53.588;10.010;2023-02-19T10:23:15;7.20;99.90
5280;DHT22;2663;53.588;10.010;2023-02-19T10:25:48;7.30;99.90
5280;DHT22;2663;53.588;10.010;2023-02-19T10:28:20;7.30;99.90
5280;DHT22;2663;53.588;10.010;2023-02-19T10:30:54;7.40;99.90
5280;DHT22;2663;53.588;10.010;2023-02-19T10:33:22;7.40;99.90
5280;DHT22;2663;53.588;10.010;2023-02-19T10:35:57;7.20;99.90
5280;DHT22;2663;53.588;10.010;2023-02-19T10:38:31;7.30;99.90
5280;DHT22;2663;53.588;10.010;2023-02-19T10:41:20;7.40;99.90
5280;DHT22;2663;53.588;10.010;2023-02-19T10:46:25;7.50;99.90
5280;DHT22;2663;53.588;10.010;2023-02-19T10:49:02;7.60;99.90
5280;DHT22;2663;53.588;10.010;2023-02-19T10:51:35;7.50;99.90
5280;DHT22;2663;53.588;10.010;2023-02-19T10:54:24;7.40;99.90
5280;DHT22;2663;53.588;10.010;2023-02-19T10:56:52;7.30;99.90
5280;DHT22;2663;53.588;10.010;2023-02-19T10:59:24;7.30;99.90
5280;DHT22;2663;53.588;10.010;2023-02-19T11:01:59;7.60;99.90
5280;DHT22;2663;53.588;10.010;2023-02-19T11:04:28;7.70;99.90
5280;DHT22;2663;53.588;10.010;2023-02-19T11:06:56;7.90;99.90
5280;DHT22;2663;53.588;10.010;2023-02-19T11:09:25;7.70;99.90
5280;DHT22;2663;53.588;10.010;2023-02-19T11:11:53;7.70;99.90
5280;DHT22;2663;53.588;10.010;2023-02-19T11:14:22;7.70;99.90
5280;DHT22;2663;53.588;10.010;2023-02-19T11:16:55;7.80;99.90
5280;DHT22;2663;53.588;10.010;2023-02-19T11:19:35;7.70;99.90
5280;DHT22;2663;53.588;10.010;2023-02-19T11:22:29;7.50;99.90
5280;DHT22;2663;53.588;10.010;2023-02-19T11:25:20;7.60;99.90
5280;DHT22;2663;53.588;10.010;2023-02-19T11:28:22;7.70;99.90
5280;DHT22;2663;53.588;10.010;2023-02-19T11:30:49;7.80;99.90
5280;DHT22;2663;53.588;10.010;2023-02-19T11:35:43;7.80;99.90
5280;DHT22;2663;53.588;10.010;2023-02-19T11:38:12;7.80;99.90
5280;DHT22;2663;53.588;10.010;2023-02-19T11:40:43;7.90;99.90
5280;DHT22;2663;53.588;10.010;2023-02-19T11:51:50;7.90;99.90
5280;DHT22;2663;53.588;10.010;2023-02-19T11:59:58;8.00;99.90
5280;DHT22;2663;53.588;10.010;2023-02-19T12:14:35;8.00;99.90
5280;DHT22;2663;53.588;10.010;2023-02-19T12:20:12;8.20;99.90
5280;DHT22;2663;53.588;10.010;2023-02-19T12:23:05;8.40;99.90
5280;DHT22;2663;53.588;10.010;2023-02-19T12:25:59;8.50;99.90
5280;DHT22;2663;53.588;10.010;2023-02-19T12:31:45;8.60;99.90
5280;DHT22;2663;53.588;10.010;2023-02-19T12:34:27;8.60;99.90
5280;DHT22;2663;53.588;10.010;2023-02-19T12:40:37;8.20;99.90
5280;DHT22;2663;53.588;10.010;2023-02-19T12:43:12;8.20;99.90
5280;DHT22;2663;53.588;10.010;2023-02-19T12:50:40;8.10;99.90
5280;DHT22;2663;53.588;10.010;2023-02-19T12:53:30;8.00;99.90
5280;DHT22;2663;53.588;10.010;2023-02-19T12:56:03;8.00;99.90
5280;DHT22;2663;53.588;10.010;2023-02-19T12:58:39;8.00;99.90
5280;DHT22;2663;53.588;10.010;2023-02-19T13:01:13;8.20;99.90
5280;DHT22;2663;53.588;10.010;2023-02-19T13:06:40;8.20;99.90
5280;DHT22;2663;53.588;10.010;2023-02-19T13:09:16;8.20;99.90
5280;DHT22;2663;53.588;10.010;2023-02-19T13:12:10;8.40;99.90
5280;DHT22;2663;53.588;10.010;2023-02-19T13:14:41;8.40;99.90
5280;DHT22;2663;53.588;10.010;2023-02-19T13:20:09;8.60;99.90
5280;DHT22;2663;53.588;10.010;2023-02-19T13:23:44;8.50;99.90
5280;DHT22;2663;53.588;10.010;2023-02-19T13:28:55;8.40;99.90
5280;DHT22;2663;53.588;10.010;2023-02-19T13:31:43;8.30;99.90
5280;DHT22;2663;53.588;10.010;2023-02-19T13:37:19;8.40;99.90
5280;DHT22;2663;53.588;10.010;2023-02-19T13:39:51;8.50;99.90
5280;DHT22;2663;53.588;10.010;2023-02-19T13:42:28;8.40;99.90
5280;DHT22;2663;53.588;10.010;2023-02-19T13:44:56;8.70;99.90
5280;DHT22;2663;53.588;10.010;2023-02-19T13:47:47;8.60;99.90
5280;DHT22;2663;53.588;10.010;2023-02-19T13:50:23;8.60;99.90
5280;DHT22;2663;53.588;10.010;2023-02-19T13:52:51;8.40;99.90
5280;DHT22;2663;53.588;10.010;2023-02-19T14:01:08;8.30;99.90
5280;DHT22;2663;53.588;10.010;2023-02-19T14:06:04;8.20;99.90
5280;DHT22;2663;53.588;10.010;2023-02-19T14:09:01;8.20;99.90
5280;DHT22;2663;53.588;10.010;2023-02-19T14:14:47;8.20;99.90
5280;DHT22;2663;53.588;10.010;2023-02-19T14:30:49;8.10;99.90
5280;DHT22;2663;53.588;10.010;2023-02-19T14:33:21;8.90;99.90
5280;DHT22;2663;53.588;10.010;2023-02-19T14:35:52;8.10;99.90
5280;DHT22;2663;53.588;10.010;2023-02-19T14:38:40;8.10;99.90
5280;DHT22;2663;53.588;10.010;2023-02-19T14:41:11;8.20;99.90
5280;DHT22;2663;53.588;10.010;2023-02-19T14:43:38;8.30;99.90
5280;DHT22;2663;53.588;10.010;2023-02-19T14:49:43;8.20;99.90
5280;DHT22;2663;53.588;10.010;2023-02-19T14:52:23;8.20;99.90
5280;DHT22;2663;53.588;10.010;2023-02-19T14:55:07;8.10;99.90
5280;DHT22;2663;53.588;10.010;2023-02-19T14:57:38;8.20;99.90
5280;DHT22;2663;53.588;10.010;2023-02-19T15:00:36;8.20;99.90
5280;DHT22;2663;53.588;10.010;2023-02-19T15:03:04;8.20;99.90
5280;DHT22;2663;53.588;10.010;2023-02-19T15:05:33;8.20;99.90
5280;DHT22;2663;53.588;10.010;2023-02-19T15:08:11;7.80;99.90
5280;DHT22;2663;53.588;10.010;2023-02-19T15:10:41;8.10;99.90
5280;DHT22;2663;53.588;10.010;2023-02-19T15:13:09;8.10;99.90
5280;DHT22;2663;53.588;10.010;2023-02-19T15:15:43;8.00;99.90
5280;DHT22;2663;53.588;10.010;2023-02-19T15:18:19;8.00;99.90
5280;DHT22;2663;53.588;10.010;2023-02-19T15:20:47;8.00;99.90
5280;DHT22;2663;53.588;10.010;2023-02-19T15:23:20;8.00;99.90
5280;DHT22;2663;53.588;10.010;2023-02-19T15:25:47;8.10;99.90
5280;DHT22;2663;53.588;10.010;2023-02-19T15:28:33;8.10;99.90
5280;DHT22;2663;53.588;10.010;2023-02-19T15:33:27;7.90;99.90
5280;DHT22;2663;53.588;10.010;2023-02-19T15:36:00;9.00;99.90
5280;DHT22;2663;53.588;10.010;2023-02-19T15:38:28;7.90;99.90
5280;DHT22;2663;53.588;10.010;2023-02-19T15:40:55;7.90;99.90
5280;DHT22;2663;53.588;10.010;2023-02-19T15:45:53;7.80;99.90
5280;DHT22;2663;53.588;10.010;2023-02-19T15:48:25;7.80;99.90
5280;DHT22;2663;53.588;10.010;2023-02-19T15:50:58;7.70;99.90
5280;DHT22;2663;53.588;10.010;2023-02-19T15:53:32;7.80;99.90
5280;DHT22;2663;53.588;10.010;2023-02-19T15:56:24;7.80;99.90
5280;DHT22;2663;53.588;10.010;2023-02-19T15:59:02;7.90;99.90
5280;DHT22;2663;53.588;10.010;2023-02-19T16:01:33;7.80;99.90
5280;DHT22;2663;53.588;10.010;2023-02-19T16:04:01;7.70;99.90
5280;DHT22;2663;53.588;10.010;2023-02-19T16:06:28;7.70;99.90
5280;DHT22;2663;53.588;10.010;2023-02-19T16:14:15;8.70;99.90
5280;DHT22;2663;53.588;10.010;2023-02-19T16:16:45;9.50;99.90
5280;DHT22;2663;53.588;10.010;2023-02-19T16:19:25;9.90;99.90
5280;DHT22;2663;53.588;10.010;2023-02-19T16:21:54;10.20;99.90
5280;DHT22;2663;53.588;10.010;2023-02-19T16:24:26;10.80;99.90
5280;DHT22;2663;53.588;10.010;2023-02-19T16:26:54;10.50;99.90
5280;DHT22;2663;53.588;10.010;2023-02-19T16:29:29;10.50;99.90
5280;DHT22;2663;53.588;10.010;2023-02-19T16:31:59;10.40;99.90
5280;DHT22;2663;53.588;10.010;2023-02-19T16:37:01;9.20;99.90
5280;DHT22;2663;53.588;10.010;2023-02-19T16:39:28;8.70;99.90
5280;DHT22;2663;53.588;10.010;2023-02-19T16:42:09;8.30;99.90
5280;DHT22;2663;53.588;10.010;2023-02-19T16:44:36;8.10;99.90
5280;DHT22;2663;53.588;10.010;2023-02-19T16:47:48;7.90;99.90
5280;DHT22;2663;53.588;10.010;2023-02-19T16:49:57;7.80;99.90
5280;DHT22;2663;53.588;10.010;2023-02-19T16:52:25;7.60;99.90
5280;DHT22;2663;53.588;10.010;2023-02-19T16:54:52;7.60;99.90
5280;DHT22;2663;53.588;10.010;2023-02-19T16:57:19;7.50;99.90
5280;DHT22;2663;53.588;10.010;2023-02-19T16:59:46;7.40;99.90
5280;DHT22;2663;53.588;10.010;2023-02-19T17:02:20;7.40;99.90
5280;DHT22;2663;53.588;10.010;2023-02-19T17:04:48;7.40;99.90
5280;DHT22;2663;53.588;10.010;2023-02-19T17:07:17;7.50;99.90
5280;DHT22;2663;53.588;10.010;2023-02-19T17:09:44;7.50;99.90
5280;DHT22;2663;53.588;10.010;2023-02-19T17:12:12;9.00;99.90
5280;DHT22;2663;53.588;10.010;2023-02-19T17:14:39;6.40;99.90
5280;DHT22;2663;53.588;10.010;2023-02-19T17:17:06;7.30;99.90
5280;DHT22;2663;53.588;10.010;2023-02-19T17:19:32;7.30;99.90
5280;DHT22;2663;53.588;10.010;2023-02-19T17:21:59;7.30;99.90
5280;DHT22;2663;53.588;10.010;2023-02-19T17:24:26;7.40;99.90
5280;DHT22;2663;53.588;10.010;2023-02-19T17:26:52;7.40;99.90
5280;DHT22;2663;53.588;10.010;2023-02-19T17:29:19;7.30;99.90
5280;DHT22;2663;53.588;10.010;2023-02-19T17:31:46;7.30;99.90
5280;DHT22;2663;53.588;10.010;2023-02-19T17:34:13;7.20;99.90
5280;DHT22;2663;53.588;10.010;2023-02-19T17:36:40;7.20;99.90
5280;DHT22;2663;53.588;10.010;2023-02-19T17:39:12;7.20;99.90
5280;DHT22;2663;53.588;10.010;2023-02-19T17:41:42;7.20;99.90
5280;DHT22;2663;53.588;10.010;2023-02-19T17:44:09;7.20;99.90
5280;DHT22;2663;53.588;10.010;2023-02-19T17:46:38;7.20;99.90
5280;DHT22;2663;53.588;10.010;2023-02-19T17:49:05;7.30;99.90
5280;DHT22;2663;53.588;10.010;2023-02-19T17:51:33;7.30;99.90
5280;DHT22;2663;53.588;10.010;2023-02-19T17:54:00;7.30;99.90
5280;DHT22;2663;53.588;10.010;2023-02-19T17:56:27;8.80;99.90
5280;DHT22;2663;53.588;10.010;2023-02-19T17:58:55;7.30;99.90
5280;DHT22;2663;53.588;10.010;2023-02-19T18:01:22;7.40;99.90
5280;DHT22;2663;53.588;10.010;2023-02-19T18:03:49;7.30;99.90
5280;DHT22;2663;53.588;10.010;2023-02-19T18:06:16;7.30;99.90
5280;DHT22;2663;53.588;10.010;2023-02-19T18:08:47;7.20;99.90
5280;DHT22;2663;53.588;10.010;2023-02-19T18:11:14;7.20;99.90
5280;DHT22;2663;53.588;10.010;2023-02-19T18:13:41;7.20;99.90
5280;DHT22;2663;53.588;10.010;2023-02-19T18:16:08;7.30;99.90
5280;DHT22;2663;53.588;10.010;2023-02-19T18:18:35;7.20;99.90
5280;DHT22;2663;53.588;10.010;2023-02-19T18:21:07;7.20;99.90
5280;DHT22;2663;53.588;10.010;2023-02-19T18:23:35;7.10;99.90
5280;DHT22;2663;53.588;10.010;2023-02-19T18:26:02;7.10;99.90
5280;DHT22;2663;53.588;10.010;2023-02-19T18:28:29;5.60;99.90